sensor_id;sensor_type;location;lat;lon;timestamp;P1;durP1;ratioP1;P2;durP2;ratioP2
10657;SDS011;5377;43.276;26.930;2022-08-21T05:27:37;11.43;;;10.40;;
10657;SDS011;5377;43.276;26.930;2022-08-21T05:30:04;9.95;;;8.95;;
10657;SDS011;5377;43.276;26.930;2022-08-21T05:32:34;9.15;;;8.30;;
10657;SDS011;5377;43.276;26.930;2022-08-21T05:35:01;9.02;;;8.20;;
10657;SDS011;5377;43.276;26.930;2022-08-21T05:40:26;10.80;;;9.85;;
10657;SDS011;5377;43.276;26.930;2022-08-21T05:42:55;11.25;;;8.95;;
10657;SDS011;5377;43.276;26.930;2022-08-21T05:45:24;12.43;;;11.13;;
10657;SDS011;5377;43.276;26.930;2022-08-21T05:47:53;11.20;;;9.07;;
10657;SDS011;5377;43.276;26.930;2022-08-21T05:50:20;9.52;;;8.73;;
10657;SDS011;5377;43.276;26.930;2022-08-21T05:52:47;15.60;;;14.07;;
10657;SDS011;5377;43.276;26.930;2022-08-21T05:55:14;10.73;;;9.68;;
10657;SDS011;5377;43.276;26.930;2022-08-21T05:57:41;15.50;;;13.30;;
10657;SDS011;5377;43.276;26.930;2022-08-21T06:00:10;10.85;;;9.60;;
10657;SDS011;5377;43.276;26.930;2022-08-21T06:02:38;9.68;;;8.73;;
10657;SDS011;5377;43.276;26.930;2022-08-21T06:05:05;9.30;;;8.48;;
10657;SDS011;5377;43.276;26.930;2022-08-21T06:07:33;10.65;;;7.65;;
10657;SDS011;5377;43.276;26.930;2022-08-21T06:09:59;10.95;;;8.40;;
10657;SDS011;5377;43.276;26.930;2022-08-21T06:12:33;11.48;;;8.10;;
10657;SDS011;5377;43.276;26.930;2022-08-21T06:15:03;9.70;;;8.80;;
10657;SDS011;5377;43.276;26.930;2022-08-21T06:17:34;13.98;;;10.70;;
10657;SDS011;5377;43.276;26.930;2022-08-21T06:20:02;9.00;;;8.23;;
10657;SDS011;5377;43.276;26.930;2022-08-21T06:22:33;9.93;;;9.02;;
10657;SDS011;5377;43.276;26.930;2022-08-21T06:25:00;9.38;;;8.43;;
10657;SDS011;5377;43.276;26.930;2022-08-21T06:27:27;14.05;;;12.38;;
10657;SDS011;5377;43.276;26.930;2022-08-21T06:29:54;11.75;;;10.55;;
10657;SDS011;5377;43.276;26.930;2022-08-21T06:32:22;10.00;;;9.05;;
10657;SDS011;5377;43.276;26.930;2022-08-21T06:34:51;10.75;;;9.45;;
10657;SDS011;5377;43.276;26.930;2022-08-21T06:37:17;13.10;;;9.15;;
10657;SDS011;5377;43.276;26.930;2022-08-21T06:39:45;9.68;;;8.68;;
10657;SDS011;5377;43.276;26.930;2022-08-21T06:42:13;10.85;;;8.60;;
10657;SDS011;5377;43.276;26.930;2022-08-21T06:44:40;10.85;;;8.73;;
10657;SDS011;5377;43.276;26.930;2022-08-21T06:47:07;8.85;;;8.13;;
10657;SDS011;5377;43.276;26.930;2022-08-21T06:49:35;11.50;;;9.70;;
10657;SDS011;5377;43.276;26.930;2022-08-21T06:52:03;11.48;;;8.88;;
10657;SDS011;5377;43.276;26.930;2022-08-21T06:54:35;12.32;;;11.05;;
10657;SDS011;5377;43.276;26.930;2022-08-21T06:57:02;10.52;;;8.75;;
10657;SDS011;5377;43.276;26.930;2022-08-21T06:59:30;14.25;;;10.23;;
10657;SDS011;5377;43.276;26.930;2022-08-21T07:01:57;11.73;;;8.43;;
10657;SDS011;5377;43.276;26.930;2022-08-21T07:04:24;8.02;;;7.30;;
10657;SDS011;5377;43.276;26.930;2022-08-21T07:06:51;10.45;;;8.65;;
10657;SDS011;5377;43.276;26.930;2022-08-21T07:09:20;10.73;;;8.90;;
10657;SDS011;5377;43.276;26.930;2022-08-21T07:11:47;9.55;;;8.55;;
10657;SDS011;5377;43.276;26.930;2022-08-21T07:14:17;9.60;;;8.80;;
10657;SDS011;5377;43.276;26.930;2022-08-21T07:16:44;11.00;;;8.85;;
10657;SDS011;5377;43.276;26.930;2022-08-21T07:19:11;9.07;;;8.18;;
10657;SDS011;5377;43.276;26.930;2022-08-21T07:21:38;10.55;;;7.75;;
10657;SDS011;5377;43.276;26.930;2022-08-21T07:24:05;9.65;;;8.65;;
10657;SDS011;5377;43.276;26.930;2022-08-21T07:26:33;12.02;;;9.57;;
10657;SDS011;5377;43.276;26.930;2022-08-21T07:29:00;11.18;;;8.43;;
10657;SDS011;5377;43.276;26.930;2022-08-21T07:31:27;8.15;;;7.45;;
10657;SDS011;5377;43.276;26.930;2022-08-21T07:33:54;9.63;;;8.48;;
10657;SDS011;5377;43.276;26.930;2022-08-21T07:36:21;9.20;;;8.25;;
10657;SDS011;5377;43.276;26.930;2022-08-21T07:38:49;8.02;;;7.43;;
10657;SDS011;5377;43.276;26.930;2022-08-21T07:41:16;9.20;;;8.02;;
10657;SDS011;5377;43.276;26.930;2022-08-21T07:43:47;9.43;;;8.40;;
10657;SDS011;5377;43.276;26.930;2022-08-21T07:46:15;9.38;;;8.05;;
10657;SDS011;5377;43.276;26.930;2022-08-21T07:48:42;8.23;;;7.63;;
10657;SDS011;5377;43.276;26.930;2022-08-21T07:51:09;8.63;;;7.85;;
10657;SDS011;5377;43.276;26.930;2022-08-21T07:53:38;8.88;;;7.68;;
10657;SDS011;5377;43.276;26.930;2022-08-21T07:56:06;8.25;;;7.45;;
10657;SDS011;5377;43.276;26.930;2022-08-21T07:58:36;8.75;;;7.95;;
10657;SDS011;5377;43.276;26.930;2022-08-21T08:01:04;10.55;;;8.23;;
10657;SDS011;5377;43.276;26.930;2022-08-21T08:03:31;8.00;;;7.20;;
10657;SDS011;5377;43.276;26.930;2022-08-21T08:05:58;7.97;;;6.97;;
10657;SDS011;5377;43.276;26.930;2022-08-21T08:08:25;7.63;;;6.90;;
10657;SDS011;5377;43.276;26.930;2022-08-21T08:10:52;7.78;;;7.00;;
10657;SDS011;5377;43.276;26.930;2022-08-21T08:13:20;7.38;;;6.75;;
10657;SDS011;5377;43.276;26.930;2022-08-21T08:15:47;8.25;;;6.65;;
10657;SDS011;5377;43.276;26.930;2022-08-21T08:18:16;8.23;;;6.68;;
10657;SDS011;5377;43.276;26.930;2022-08-21T08:20:43;8.98;;;7.13;;
10657;SDS011;5377;43.276;26.930;2022-08-21T08:23:10;7.65;;;6.20;;
10657;SDS011;5377;43.276;26.930;2022-08-21T08:25:37;6.97;;;5.80;;
10657;SDS011;5377;43.276;26.930;2022-08-21T08:28:04;7.90;;;7.07;;
10657;SDS011;5377;43.276;26.930;2022-08-21T08:30:32;6.57;;;5.97;;
10657;SDS011;5377;43.276;26.930;2022-08-21T08:32:59;8.77;;;6.60;;
10657;SDS011;5377;43.276;26.930;2022-08-21T08:35:27;7.43;;;6.72;;
10657;SDS011;5377;43.276;26.930;2022-08-21T08:37:54;6.65;;;6.15;;
10657;SDS011;5377;43.276;26.930;2022-08-21T08:40:22;6.65;;;5.97;;
10657;SDS011;5377;43.276;26.930;2022-08-21T08:42:58;6.63;;;6.13;;
10657;SDS011;5377;43.276;26.930;2022-08-21T08:45:25;6.90;;;6.30;;
10657;SDS011;5377;43.276;26.930;2022-08-21T08:47:58;7.85;;;5.57;;
10657;SDS011;5377;43.276;26.930;2022-08-21T08:50:33;8.68;;;5.88;;
10657;SDS011;5377;43.276;26.930;2022-08-21T08:53:08;7.18;;;5.88;;
10657;SDS011;5377;43.276;26.930;2022-08-21T08:55:42;6.70;;;4.93;;
10657;SDS011;5377;43.276;26.930;2022-08-21T08:58:12;9.75;;;5.72;;
10657;SDS011;5377;43.276;26.930;2022-08-21T09:00:45;5.90;;;4.82;;
10657;SDS011;5377;43.276;26.930;2022-08-21T09:03:15;7.03;;;5.35;;
10657;SDS011;5377;43.276;26.930;2022-08-21T09:05:44;5.72;;;4.90;;
10657;SDS011;5377;43.276;26.930;2022-08-21T09:11:26;5.70;;;5.10;;
10657;SDS011;5377;43.276;26.930;2022-08-21T09:13:57;6.78;;;5.97;;
10657;SDS011;5377;43.276;26.930;2022-08-21T09:16:37;6.00;;;4.90;;
10657;SDS011;5377;43.276;26.930;2022-08-21T09:19:15;6.72;;;5.90;;
10657;SDS011;5377;43.276;26.930;2022-08-21T09:21:57;6.80;;;6.13;;
10657;SDS011;5377;43.276;26.930;2022-08-21T09:24:35;8.23;;;5.20;;
10657;SDS011;5377;43.276;26.930;2022-08-21T09:27:09;6.05;;;5.20;;
10657;SDS011;5377;43.276;26.930;2022-08-21T09:29:39;6.60;;;5.97;;
10657;SDS011;5377;43.276;26.930;2022-08-21T09:32:11;5.00;;;4.53;;
10657;SDS011;5377;43.276;26.930;2022-08-21T09:34:53;5.30;;;4.80;;
10657;SDS011;5377;43.276;26.930;2022-08-21T09:37:32;6.32;;;5.30;;
10657;SDS011;5377;43.276;26.930;2022-08-21T09:40:02;7.40;;;5.00;;
10657;SDS011;5377;43.276;26.930;2022-08-21T09:42:41;5.20;;;4.43;;
10657;SDS011;5377;43.276;26.930;2022-08-21T09:45:19;5.25;;;4.40;;
10657;SDS011;5377;43.276;26.930;2022-08-21T09:47:49;6.95;;;4.60;;
10657;SDS011;5377;43.276;26.930;2022-08-21T09:50:18;6.25;;;4.65;;
10657;SDS011;5377;43.276;26.930;2022-08-21T09:52:49;9.13;;;4.60;;
10657;SDS011;5377;43.276;26.930;2022-08-21T09:55:20;4.78;;;4.35;;
10657;SDS011;5377;43.276;26.930;2022-08-21T09:58:12;9.15;;;4.90;;
10657;SDS011;5377;43.276;26.930;2022-08-21T10:00:39;6.70;;;6.05;;
10657;SDS011;5377;43.276;26.930;2022-08-21T10:03:10;5.35;;;4.80;;
10657;SDS011;5377;43.276;26.930;2022-08-21T10:05:39;7.55;;;5.20;;
10657;SDS011;5377;43.276;26.930;2022-08-21T10:08:18;7.78;;;4.85;;
10657;SDS011;5377;43.276;26.930;2022-08-21T10:10:49;7.07;;;5.32;;
10657;SDS011;5377;43.276;26.930;2022-08-21T10:13:19;5.05;;;4.43;;
10657;SDS011;5377;43.276;26.930;2022-08-21T10:15:53;5.10;;;3.85;;
10657;SDS011;5377;43.276;26.930;2022-08-21T10:18:34;6.25;;;4.05;;
10657;SDS011;5377;43.276;26.930;2022-08-21T10:21:08;5.53;;;4.20;;
10657;SDS011;5377;43.276;26.930;2022-08-21T10:23:57;6.68;;;4.85;;
10657;SDS011;5377;43.276;26.930;2022-08-21T10:26:39;7.28;;;4.15;;
10657;SDS011;5377;43.276;26.930;2022-08-21T10:29:19;7.60;;;3.30;;
10657;SDS011;5377;43.276;26.930;2022-08-21T10:32:02;4.00;;;3.75;;
10657;SDS011;5377;43.276;26.930;2022-08-21T10:34:40;5.32;;;3.85;;
10657;SDS011;5377;43.276;26.930;2022-08-21T10:37:18;4.90;;;4.45;;
10657;SDS011;5377;43.276;26.930;2022-08-21T10:40:01;5.18;;;4.25;;
10657;SDS011;5377;43.276;26.930;2022-08-21T10:42:38;8.57;;;4.80;;
10657;SDS011;5377;43.276;26.930;2022-08-21T10:45:26;6.45;;;4.75;;
10657;SDS011;5377;43.276;26.930;2022-08-21T10:48:00;5.10;;;4.28;;
10657;SDS011;5377;43.276;26.930;2022-08-21T10:50:31;4.50;;;4.20;;
10657;SDS011;5377;43.276;26.930;2022-08-21T10:53:11;4.85;;;4.43;;
10657;SDS011;5377;43.276;26.930;2022-08-21T10:55:52;3.92;;;3.70;;
10657;SDS011;5377;43.276;26.930;2022-08-21T10:58:25;8.18;;;5.65;;
10657;SDS011;5377;43.276;26.930;2022-08-21T11:00:56;7.50;;;6.53;;
10657;SDS011;5377;43.276;26.930;2022-08-21T11:03:29;7.28;;;4.13;;
10657;SDS011;5377;43.276;26.930;2022-08-21T11:06:02;5.13;;;4.20;;
10657;SDS011;5377;43.276;26.930;2022-08-21T11:08:37;5.53;;;4.60;;
10657;SDS011;5377;43.276;26.930;2022-08-21T11:11:08;7.15;;;4.60;;
10657;SDS011;5377;43.276;26.930;2022-08-21T11:13:41;5.78;;;4.35;;
10657;SDS011;5377;43.276;26.930;2022-08-21T11:16:13;5.78;;;4.45;;
10657;SDS011;5377;43.276;26.930;2022-08-21T11:18:47;5.60;;;4.55;;
10657;SDS011;5377;43.276;26.930;2022-08-21T11:21:25;5.65;;;4.65;;
10657;SDS011;5377;43.276;26.930;2022-08-21T11:23:59;4.80;;;4.38;;
10657;SDS011;5377;43.276;26.930;2022-08-21T11:26:39;8.07;;;4.18;;
10657;SDS011;5377;43.276;26.930;2022-08-21T11:29:12;8.40;;;4.15;;
10657;SDS011;5377;43.276;26.930;2022-08-21T11:31:47;5.10;;;4.57;;
10657;SDS011;5377;43.276;26.930;2022-08-21T11:34:29;7.85;;;4.28;;
10657;SDS011;5377;43.276;26.930;2022-08-21T11:37:08;5.60;;;3.90;;
10657;SDS011;5377;43.276;26.930;2022-08-21T11:39:45;6.28;;;3.70;;
10657;SDS011;5377;43.276;26.930;2022-08-21T11:42:27;3.83;;;3.53;;
10657;SDS011;5377;43.276;26.930;2022-08-21T11:45:02;5.68;;;4.15;;
10657;SDS011;5377;43.276;26.930;2022-08-21T11:47:45;4.55;;;3.90;;
10657;SDS011;5377;43.276;26.930;2022-08-21T11:50:21;4.18;;;3.88;;
10657;SDS011;5377;43.276;26.930;2022-08-21T11:52:53;4.93;;;3.17;;
10657;SDS011;5377;43.276;26.930;2022-08-21T11:55:29;6.15;;;3.72;;
10657;SDS011;5377;43.276;26.930;2022-08-21T11:58:05;5.35;;;3.47;;
10657;SDS011;5377;43.276;26.930;2022-08-21T12:00:38;3.78;;;3.53;;
10657;SDS011;5377;43.276;26.930;2022-08-21T12:03:09;5.13;;;4.57;;
10657;SDS011;5377;43.276;26.930;2022-08-21T12:05:40;4.10;;;3.40;;
10657;SDS011;5377;43.276;26.930;2022-08-21T12:08:12;5.13;;;3.50;;
10657;SDS011;5377;43.276;26.930;2022-08-21T12:10:59;6.85;;;3.72;;
10657;SDS011;5377;43.276;26.930;2022-08-21T12:13:31;5.28;;;3.90;;
10657;SDS011;5377;43.276;26.930;2022-08-21T12:16:09;4.40;;;3.63;;
10657;SDS011;5377;43.276;26.930;2022-08-21T12:18:38;5.18;;;3.78;;
10657;SDS011;5377;43.276;26.930;2022-08-21T12:21:16;5.15;;;3.78;;
10657;SDS011;5377;43.276;26.930;2022-08-21T12:23:47;4.72;;;3.50;;
10657;SDS011;5377;43.276;26.930;2022-08-21T12:26:28;4.35;;;2.85;;
10657;SDS011;5377;43.276;26.930;2022-08-21T12:31:53;5.05;;;3.50;;
10657;SDS011;5377;43.276;26.930;2022-08-21T12:34:26;3.47;;;3.15;;
10657;SDS011;5377;43.276;26.930;2022-08-21T12:36:59;5.20;;;3.60;;
10657;SDS011;5377;43.276;26.930;2022-08-21T12:39:30;6.90;;;3.78;;
10657;SDS011;5377;43.276;26.930;2022-08-21T12:42:00;5.10;;;3.20;;
10657;SDS011;5377;43.276;26.930;2022-08-21T12:44:35;5.32;;;2.85;;
10657;SDS011;5377;43.276;26.930;2022-08-21T12:47:12;6.43;;;3.55;;
10657;SDS011;5377;43.276;26.930;2022-08-21T12:49:45;6.20;;;3.70;;
10657;SDS011;5377;43.276;26.930;2022-08-21T12:52:20;3.35;;;3.15;;
10657;SDS011;5377;43.276;26.930;2022-08-21T12:54:49;4.53;;;3.47;;
10657;SDS011;5377;43.276;26.930;2022-08-21T12:57:18;5.00;;;3.33;;
10657;SDS011;5377;43.276;26.930;2022-08-21T12:59:50;5.50;;;2.67;;
10657;SDS011;5377;43.276;26.930;2022-08-21T13:02:21;6.68;;;3.03;;
10657;SDS011;5377;43.276;26.930;2022-08-21T13:04:51;5.15;;;3.17;;
10657;SDS011;5377;43.276;26.930;2022-08-21T13:07:22;5.03;;;3.17;;
10657;SDS011;5377;43.276;26.930;2022-08-21T13:09:53;5.38;;;3.35;;
10657;SDS011;5377;43.276;26.930;2022-08-21T13:12:23;5.80;;;2.50;;
10657;SDS011;5377;43.276;26.930;2022-08-21T13:14:55;4.35;;;2.88;;
10657;SDS011;5377;43.276;26.930;2022-08-21T13:17:25;3.65;;;2.83;;
10657;SDS011;5377;43.276;26.930;2022-08-21T13:19:57;5.55;;;3.17;;
10657;SDS011;5377;43.276;26.930;2022-08-21T13:22:27;4.00;;;3.60;;
10657;SDS011;5377;43.276;26.930;2022-08-21T13:24:55;6.57;;;3.55;;
10657;SDS011;5377;43.276;26.930;2022-08-21T13:27:24;3.75;;;3.03;;
10657;SDS011;5377;43.276;26.930;2022-08-21T13:30:08;4.15;;;3.85;;
10657;SDS011;5377;43.276;26.930;2022-08-21T13:32:39;5.55;;;3.85;;
10657;SDS011;5377;43.276;26.930;2022-08-21T13:35:09;4.97;;;4.13;;
10657;SDS011;5377;43.276;26.930;2022-08-21T13:37:39;5.43;;;4.90;;
10657;SDS011;5377;43.276;26.930;2022-08-21T13:40:09;5.80;;;4.10;;
10657;SDS011;5377;43.276;26.930;2022-08-21T13:42:39;4.30;;;3.90;;
10657;SDS011;5377;43.276;26.930;2022-08-21T13:45:12;8.20;;;4.22;;
10657;SDS011;5377;43.276;26.930;2022-08-21T13:47:41;4.32;;;3.95;;
10657;SDS011;5377;43.276;26.930;2022-08-21T13:50:10;4.55;;;4.15;;
10657;SDS011;5377;43.276;26.930;2022-08-21T13:52:46;4.70;;;4.30;;
10657;SDS011;5377;43.276;26.930;2022-08-21T13:55:16;5.18;;;4.07;;
10657;SDS011;5377;43.276;26.930;2022-08-21T13:57:43;4.75;;;3.97;;
10657;SDS011;5377;43.276;26.930;2022-08-21T14:00:15;5.07;;;4.75;;
10657;SDS011;5377;43.276;26.930;2022-08-21T14:02:45;5.40;;;5.00;;
10657;SDS011;5377;43.276;26.930;2022-08-21T14:05:15;5.13;;;4.50;;
10657;SDS011;5377;43.276;26.930;2022-08-21T14:07:48;5.07;;;4.57;;
10657;SDS011;5377;43.276;26.930;2022-08-21T14:10:19;4.70;;;4.30;;
10657;SDS011;5377;43.276;26.930;2022-08-21T14:12:49;6.30;;;4.90;;
10657;SDS011;5377;43.276;26.930;2022-08-21T14:15:27;4.80;;;4.38;;
10657;SDS011;5377;43.276;26.930;2022-08-21T14:18:05;5.93;;;5.32;;
10657;SDS011;5377;43.276;26.930;2022-08-21T14:20:36;8.68;;;4.60;;
10657;SDS011;5377;43.276;26.930;2022-08-21T14:23:03;6.00;;;5.25;;
10657;SDS011;5377;43.276;26.930;2022-08-21T14:25:31;4.60;;;4.20;;
10657;SDS011;5377;43.276;26.930;2022-08-21T14:28:18;6.55;;;4.28;;
10657;SDS011;5377;43.276;26.930;2022-08-21T14:30:51;8.10;;;5.53;;
10657;SDS011;5377;43.276;26.930;2022-08-21T14:33:20;6.10;;;4.60;;
10657;SDS011;5377;43.276;26.930;2022-08-21T14:35:52;10.00;;;5.93;;
10657;SDS011;5377;43.276;26.930;2022-08-21T14:38:21;5.47;;;4.93;;
10657;SDS011;5377;43.276;26.930;2022-08-21T14:40:51;5.90;;;5.20;;
10657;SDS011;5377;43.276;26.930;2022-08-21T14:43:19;9.50;;;5.53;;
10657;SDS011;5377;43.276;26.930;2022-08-21T14:45:47;6.30;;;4.85;;
10657;SDS011;5377;43.276;26.930;2022-08-21T14:48:16;9.02;;;4.57;;
10657;SDS011;5377;43.276;26.930;2022-08-21T14:50:42;6.00;;;5.43;;
10657;SDS011;5377;43.276;26.930;2022-08-21T14:53:09;6.50;;;4.25;;
10657;SDS011;5377;43.276;26.930;2022-08-21T14:55:37;4.97;;;4.55;;
10657;SDS011;5377;43.276;26.930;2022-08-21T14:58:19;7.20;;;4.80;;
10657;SDS011;5377;43.276;26.930;2022-08-21T15:00:48;6.03;;;4.30;;
10657;SDS011;5377;43.276;26.930;2022-08-21T15:03:17;4.78;;;4.32;;
10657;SDS011;5377;43.276;26.930;2022-08-21T15:05:46;5.13;;;4.43;;
10657;SDS011;5377;43.276;26.930;2022-08-21T15:08:13;6.53;;;5.15;;
10657;SDS011;5377;43.276;26.930;2022-08-21T15:10:40;7.10;;;4.40;;
10657;SDS011;5377;43.276;26.930;2022-08-21T15:13:07;8.88;;;7.55;;
10657;SDS011;5377;43.276;26.930;2022-08-21T15:15:45;5.15;;;4.60;;
10657;SDS011;5377;43.276;26.930;2022-08-21T15:18:14;6.88;;;4.90;;
10657;SDS011;5377;43.276;26.930;2022-08-21T15:20:42;4.97;;;4.55;;
10657;SDS011;5377;43.276;26.930;2022-08-21T15:23:09;5.85;;;4.63;;
10657;SDS011;5377;43.276;26.930;2022-08-21T15:25:36;6.75;;;4.32;;
10657;SDS011;5377;43.276;26.930;2022-08-21T15:28:06;5.95;;;5.20;;
10657;SDS011;5377;43.276;26.930;2022-08-21T15:30:32;5.50;;;4.80;;
10657;SDS011;5377;43.276;26.930;2022-08-21T15:33:03;9.95;;;4.68;;
10657;SDS011;5377;43.276;26.930;2022-08-21T15:35:30;6.20;;;4.65;;
10657;SDS011;5377;43.276;26.930;2022-08-21T15:37:59;4.72;;;4.22;;
10657;SDS011;5377;43.276;26.930;2022-08-21T15:40:25;6.60;;;4.30;;
10657;SDS011;5377;43.276;26.930;2022-08-21T15:42:56;4.68;;;3.75;;
10657;SDS011;5377;43.276;26.930;2022-08-21T15:45:25;5.05;;;4.20;;
10657;SDS011;5377;43.276;26.930;2022-08-21T15:47:53;6.82;;;4.65;;
10657;SDS011;5377;43.276;26.930;2022-08-21T15:50:21;4.55;;;4.10;;
10657;SDS011;5377;43.276;26.930;2022-08-21T15:52:49;5.22;;;4.57;;
10657;SDS011;5377;43.276;26.930;2022-08-21T15:58:39;4.95;;;4.13;;
10657;SDS011;5377;43.276;26.930;2022-08-21T16:04:29;5.95;;;4.82;;
10657;SDS011;5377;43.276;26.930;2022-08-21T16:06:56;4.32;;;3.92;;
10657;SDS011;5377;43.276;26.930;2022-08-21T16:09:22;5.28;;;4.78;;
10657;SDS011;5377;43.276;26.930;2022-08-21T16:11:50;4.90;;;4.40;;
10657;SDS011;5377;43.276;26.930;2022-08-21T16:14:19;5.45;;;4.45;;
10657;SDS011;5377;43.276;26.930;2022-08-21T16:16:46;6.55;;;3.25;;
10657;SDS011;5377;43.276;26.930;2022-08-21T16:19:13;7.03;;;3.70;;
10657;SDS011;5377;43.276;26.930;2022-08-21T16:21:40;5.97;;;3.58;;
10657;SDS011;5377;43.276;26.930;2022-08-21T16:24:07;4.80;;;3.35;;
10657;SDS011;5377;43.276;26.930;2022-08-21T16:26:34;4.50;;;2.30;;
10657;SDS011;5377;43.276;26.930;2022-08-21T16:29:01;3.40;;;2.85;;
10657;SDS011;5377;43.276;26.930;2022-08-21T16:31:32;2.72;;;2.40;;
10657;SDS011;5377;43.276;26.930;2022-08-21T16:37:25;3.35;;;2.53;;
10657;SDS011;5377;43.276;26.930;2022-08-21T16:49:33;3.10;;;2.17;;
10657;SDS011;5377;43.276;26.930;2022-08-21T16:55:24;2.95;;;2.33;;
10657;SDS011;5377;43.276;26.930;2022-08-21T16:57:51;2.47;;;1.75;;
10657;SDS011;5377;43.276;26.930;2022-08-21T17:00:19;2.38;;;2.15;;
10657;SDS011;5377;43.276;26.930;2022-08-21T17:09:56;4.03;;;3.63;;
10657;SDS011;5377;43.276;26.930;2022-08-21T17:25:34;3.17;;;2.92;;
10657;SDS011;5377;43.276;26.930;2022-08-21T17:39:09;3.67;;;3.35;;
10657;SDS011;5377;43.276;26.930;2022-08-21T17:41:39;3.20;;;2.90;;
10657;SDS011;5377;43.276;26.930;2022-08-21T17:44:07;3.75;;;3.35;;
10657;SDS011;5377;43.276;26.930;2022-08-21T17:46:36;4.47;;;4.05;;
10657;SDS011;5377;43.276;26.930;2022-08-21T17:52:28;6.10;;;4.93;;
10657;SDS011;5377;43.276;26.930;2022-08-21T17:54:55;6.28;;;5.72;;
10657;SDS011;5377;43.276;26.930;2022-08-21T17:57:23;6.97;;;4.85;;
10657;SDS011;5377;43.276;26.930;2022-08-21T18:09:51;9.73;;;5.68;;
10657;SDS011;5377;43.276;26.930;2022-08-21T18:15:45;14.05;;;6.63;;
10657;SDS011;5377;43.276;26.930;2022-08-21T18:25:04;11.98;;;8.20;;
10657;SDS011;5377;43.276;26.930;2022-08-21T18:51:29;5.82;;;4.97;;
10657;SDS011;5377;43.276;26.930;2022-08-21T19:00:45;5.97;;;5.47;;
10657;SDS011;5377;43.276;26.930;2022-08-21T19:03:15;12.90;;;10.20;;
10657;SDS011;5377;43.276;26.930;2022-08-21T19:09:33;8.70;;;4.50;;
10657;SDS011;5377;43.276;26.930;2022-08-21T19:21:56;7.30;;;4.70;;
10657;SDS011;5377;43.276;26.930;2022-08-21T19:27:46;6.18;;;4.22;;
10657;SDS011;5377;43.276;26.930;2022-08-21T19:48:31;4.93;;;4.32;;
10657;SDS011;5377;43.276;26.930;2022-08-21T20:04:32;5.20;;;4.78;;
10657;SDS011;5377;43.276;26.930;2022-08-21T20:16:45;6.05;;;4.93;;
10657;SDS011;5377;43.276;26.930;2022-08-21T20:36:22;5.20;;;3.40;;
10657;SDS011;5377;43.276;26.930;2022-08-21T20:41:47;4.05;;;3.75;;
10657;SDS011;5377;43.276;26.930;2022-08-21T20:44:14;3.30;;;3.00;;
10657;SDS011;5377;43.276;26.930;2022-08-21T21:00:47;4.20;;;3.80;;
10657;SDS011;5377;43.276;26.930;2022-08-21T21:30:18;5.40;;;5.00;;
10657;SDS011;5377;43.276;26.930;2022-08-21T21:46:35;7.80;;;6.72;;
10657;SDS011;5377;43.276;26.930;2022-08-21T21:53:39;7.15;;;6.45;;
10657;SDS011;5377;43.276;26.930;2022-08-21T22:03:44;8.80;;;8.00;;
10657;SDS011;5377;43.276;26.930;2022-08-21T22:06:21;7.78;;;6.95;;
10657;SDS011;5377;43.276;26.930;2022-08-21T22:09:09;7.03;;;6.32;;
